createdAt,value
2018-09-09T00:03:28.299Z,8.07
2018-09-09T00:07:31.412Z,7.07
2018-09-09T00:11:34.307Z,8.63
2018-09-09T00:15:37.211Z,8.27
2018-09-09T00:19:40.145Z,8.47
2018-09-09T00:23:43.032Z,8.17
2018-09-09T00:27:46.235Z,8.97
2018-09-09T00:31:49.356Z,9.37
2018-09-09T00:35:52.441Z,8.37
2018-09-09T00:39:55.546Z,8.33
2018-09-09T00:43:58.422Z,9.53
2018-09-09T00:48:01.612Z,12.47
2018-09-09T00:52:10.020Z,12.27
2018-09-09T00:56:12.919Z,10.00
2018-09-09T01:00:20.159Z,12.00
2018-09-09T01:04:23.092Z,11.90
2018-09-09T01:08:25.972Z,13.17
2018-09-09T01:12:29.112Z,13.50
2018-09-09T01:16:32.183Z,13.87
2018-09-09T01:20:35.104Z,13.53
2018-09-09T01:24:37.976Z,11.83
2018-09-09T01:28:41.371Z,12.47
2018-09-09T01:32:44.239Z,13.20
2018-09-09T01:36:47.386Z,12.90
2018-09-09T01:40:50.262Z,13.63
2018-09-09T01:44:53.475Z,15.17
2018-09-09T01:48:56.553Z,15.20
2018-09-09T01:52:59.479Z,13.77
2018-09-09T01:57:02.356Z,12.93
2018-09-09T02:01:05.248Z,14.53
2018-09-09T02:05:08.346Z,15.97
2018-09-09T02:09:11.268Z,14.37
2018-09-09T02:13:14.130Z,14.53
2018-09-09T02:17:17.260Z,13.97
2018-09-09T02:21:20.119Z,12.97
2018-09-09T02:25:23.207Z,16.70
2018-09-09T02:29:26.839Z,14.07
2018-09-09T02:33:29.843Z,14.80
2018-09-09T02:37:32.925Z,13.97
2018-09-09T02:41:36.835Z,13.47
2018-09-09T02:45:39.712Z,15.03
2018-09-09T02:49:42.951Z,14.63
2018-09-09T02:53:45.829Z,14.47
2018-09-09T02:57:49.033Z,13.33
2018-09-09T03:01:51.886Z,14.93
2018-09-09T03:05:54.800Z,14.77
2018-09-09T03:09:57.892Z,16.20
2018-09-09T03:14:00.812Z,16.23
2018-09-09T03:18:03.956Z,16.47
2018-09-09T03:22:06.875Z,16.20
2018-09-09T03:26:09.955Z,15.73
2018-09-09T03:30:13.099Z,16.90
2018-09-09T03:34:15.968Z,17.17
2018-09-09T03:38:19.367Z,16.63
2018-09-09T03:42:22.265Z,17.97
2018-09-09T03:46:25.380Z,18.87
2018-09-09T03:50:28.235Z,17.43
2018-09-09T03:54:31.486Z,15.87
2018-09-09T03:58:34.598Z,16.50
2018-09-09T04:02:37.744Z,18.57
2018-09-09T04:06:41.263Z,15.93
2018-09-09T04:10:44.345Z,17.07
2018-09-09T04:14:47.271Z,17.13
2018-09-09T04:18:50.364Z,16.17
2018-09-09T04:22:53.269Z,18.37
2018-09-09T04:26:56.150Z,19.33
2018-09-09T04:30:59.495Z,17.87
2018-09-09T04:35:02.263Z,17.03
2018-09-09T04:39:07.311Z,22.83
2018-09-09T04:43:10.399Z,17.10
2018-09-09T04:47:13.439Z,17.77
2018-09-09T04:51:16.300Z,17.93
2018-09-09T04:55:19.191Z,17.93
2018-09-09T04:59:22.295Z,17.70
2018-09-09T05:03:25.217Z,18.97
2018-09-09T05:07:28.423Z,18.67
2018-09-09T05:11:31.364Z,19.33
2018-09-09T05:15:34.234Z,17.73
2018-09-09T05:19:37.131Z,18.40
2018-09-09T05:23:40.011Z,19.73
2018-09-09T05:27:42.911Z,18.13
2018-09-09T05:31:45.786Z,18.10
2018-09-09T05:35:48.704Z,17.80
2018-09-09T05:39:51.575Z,17.70
2018-09-09T05:43:54.840Z,18.30
2018-09-09T05:47:57.708Z,20.07
2018-09-09T05:52:00.851Z,18.50
2018-09-09T05:56:03.721Z,17.87
2018-09-09T06:00:06.750Z,15.93
2018-09-09T06:04:09.837Z,20.73
2018-09-09T06:08:12.907Z,19.13
2018-09-09T06:12:15.800Z,17.40
2018-09-09T06:16:18.842Z,16.67
2018-09-09T06:20:21.916Z,18.77
2018-09-09T06:24:24.967Z,18.50
2018-09-09T06:28:27.818Z,17.40
2018-09-09T06:32:30.766Z,19.27
2018-09-09T06:36:33.644Z,18.53
2018-09-09T06:40:36.881Z,17.13
2018-09-09T06:44:40.004Z,18.77
2018-09-09T06:48:42.931Z,18.23
2018-09-09T06:52:46.056Z,18.60
2018-09-09T06:56:49.900Z,18.73
2018-09-09T07:00:52.757Z,21.37
2018-09-09T07:04:55.652Z,16.50
2018-09-09T07:09:00.139Z,15.53
2018-09-09T07:13:03.081Z,17.77
2018-09-09T07:17:06.090Z,15.87
2018-09-09T07:21:09.171Z,17.80
2018-09-09T07:25:12.037Z,17.33
2018-09-09T07:29:14.935Z,16.43
2018-09-09T07:33:17.812Z,19.80
2018-09-09T07:37:20.754Z,15.83
2018-09-09T07:41:23.623Z,16.03
2018-09-09T07:45:26.894Z,18.80
2018-09-09T07:49:29.760Z,14.83
2018-09-09T07:53:32.786Z,14.83
2018-09-09T07:57:35.663Z,14.73
2018-09-09T08:01:38.612Z,17.53
2018-09-09T08:05:41.481Z,14.47
2018-09-09T08:09:44.658Z,13.00
2018-09-09T08:13:47.516Z,13.57
2018-09-09T08:17:50.431Z,13.53
2018-09-09T08:21:53.303Z,15.53
2018-09-09T08:25:56.427Z,13.53
2018-09-09T08:29:59.288Z,13.43
2018-09-09T08:34:02.186Z,12.63
2018-09-09T08:38:05.048Z,13.60
2018-09-09T08:42:07.943Z,12.37
2018-09-09T08:46:11.011Z,13.43
2018-09-09T08:50:13.968Z,12.67
2018-09-09T08:54:17.057Z,14.17
2018-09-09T08:58:20.188Z,12.07
2018-09-09T09:02:23.047Z,12.00
2018-09-09T09:06:26.192Z,13.77
2018-09-09T09:10:29.439Z,11.30
2018-09-09T09:14:32.365Z,11.17
2018-09-09T09:18:35.211Z,12.40
2018-09-09T09:22:38.099Z,12.33
2018-09-09T09:26:40.982Z,9.33
2018-09-09T09:30:43.941Z,14.43
2018-09-09T09:34:46.834Z,13.13
2018-09-09T09:38:49.727Z,11.50
2018-09-09T09:42:52.620Z,10.57
2018-09-09T09:46:55.855Z,13.77
2018-09-09T09:50:58.713Z,9.77
2018-09-09T09:55:01.815Z,9.30
2018-09-09T09:59:04.658Z,8.83
2018-09-09T10:03:07.567Z,8.10
2018-09-09T10:07:10.635Z,7.00
2018-09-09T10:11:13.700Z,8.27
2018-09-09T10:15:16.862Z,7.70
2018-09-09T10:19:19.715Z,6.33
2018-09-09T10:23:22.609Z,6.30
2018-09-09T10:27:25.832Z,6.17
2018-09-09T10:31:28.698Z,7.33
2018-09-09T10:35:31.611Z,5.07
2018-09-09T10:39:34.499Z,5.40
2018-09-09T10:43:37.410Z,3.30
2018-09-09T10:47:40.291Z,3.80
2018-09-09T10:51:43.198Z,3.57
2018-09-09T10:55:46.290Z,3.57
2018-09-09T10:59:49.422Z,4.07
2018-09-09T11:03:52.289Z,3.60
2018-09-09T11:07:55.412Z,3.60
2018-09-09T11:11:58.499Z,7.57
2018-09-09T11:16:01.709Z,4.30
2018-09-09T11:20:04.572Z,5.40
2018-09-09T11:24:07.520Z,4.47
2018-09-09T11:28:10.386Z,3.07
2018-09-09T11:32:13.329Z,7.73
2018-09-09T11:36:16.496Z,4.27
2018-09-09T11:40:19.407Z,7.37
2018-09-09T11:44:22.487Z,3.30
2018-09-09T11:48:25.635Z,4.07
2018-09-09T11:52:28.707Z,4.00
2018-09-09T11:56:31.871Z,7.50
2018-09-09T12:00:34.787Z,7.40
2018-09-09T12:04:37.865Z,6.23
2018-09-09T12:08:40.828Z,7.10
2018-09-09T12:12:44.084Z,7.10
2018-09-09T12:16:47.079Z,7.10
2018-09-09T12:20:50.579Z,7.00
2018-09-09T12:24:53.514Z,6.47
2018-09-09T12:28:56.635Z,5.63
2018-09-09T12:32:59.738Z,7.60
2018-09-09T12:37:02.680Z,8.20
2018-09-09T12:41:05.796Z,6.43
2018-09-09T12:45:14.331Z,10.23
2018-09-09T12:49:17.205Z,8.77
2018-09-09T12:53:20.113Z,6.43
2018-09-09T12:57:22.976Z,4.87
2018-09-09T13:01:26.215Z,4.30
2018-09-09T13:05:29.071Z,4.13
2018-09-09T13:09:32.211Z,4.43
2018-09-09T13:13:35.368Z,5.17
2018-09-09T13:17:38.387Z,4.50
2018-09-09T13:21:41.799Z,7.20
2018-09-09T13:25:44.960Z,4.60
2018-09-09T13:29:48.764Z,4.03
2018-09-09T13:33:51.948Z,3.77
2018-09-09T13:37:54.898Z,4.17
2018-09-09T13:41:58.124Z,4.63
2018-09-09T13:46:00.983Z,3.30
2018-09-09T13:50:04.149Z,4.23
2018-09-09T13:54:07.460Z,2.77
2018-09-09T13:58:10.606Z,3.50
2018-09-09T14:02:13.710Z,3.20
2018-09-09T14:06:16.570Z,3.43
2018-09-09T14:10:19.832Z,4.07
2018-09-09T14:14:22.689Z,6.87
2018-09-09T14:18:25.623Z,4.33
2018-09-09T14:22:28.593Z,3.93
2018-09-09T14:26:31.492Z,2.87
2018-09-09T14:30:34.612Z,3.40
2018-09-09T14:34:37.544Z,10.50
2018-09-09T14:38:40.612Z,3.70
2018-09-09T14:42:43.533Z,3.27
2018-09-09T14:46:46.395Z,3.27
2018-09-09T14:50:49.648Z,2.50
2018-09-09T14:54:52.682Z,2.93
2018-09-09T14:58:55.715Z,3.63
2018-09-09T15:02:58.579Z,3.60
2018-09-09T15:07:01.898Z,4.33
2018-09-09T15:11:04.864Z,5.30
2018-09-09T15:15:08.009Z,3.33
2018-09-09T15:19:10.878Z,3.67
2018-09-09T15:23:13.791Z,5.40
2018-09-09T15:27:16.880Z,3.00
2018-09-09T15:31:19.789Z,4.00
2018-09-09T15:35:22.665Z,3.53
2018-09-09T15:39:26.480Z,3.43
2018-09-09T15:43:29.363Z,3.40
2018-09-09T15:47:32.283Z,5.47
2018-09-09T15:51:35.167Z,3.43
2018-09-09T15:55:38.417Z,2.90
2018-09-09T15:59:41.508Z,3.83
2018-09-09T16:03:44.585Z,5.47
2018-09-09T16:07:47.529Z,3.40
2018-09-09T16:11:50.692Z,4.57
2018-09-09T16:15:53.772Z,4.20
2018-09-09T16:19:56.656Z,3.43
2018-09-09T16:23:59.748Z,3.43
2018-09-09T16:28:02.603Z,5.13
2018-09-09T16:32:05.772Z,3.03
2018-09-09T16:36:08.669Z,2.90
2018-09-09T16:40:11.904Z,3.20
2018-09-09T16:44:14.775Z,3.23
2018-09-09T16:48:17.712Z,2.90
2018-09-09T16:52:20.809Z,3.30
2018-09-09T16:56:23.723Z,4.30
2018-09-09T17:00:26.703Z,3.40
2018-09-09T17:04:30.584Z,5.07
2018-09-09T17:08:33.787Z,2.60
2018-09-09T17:12:36.708Z,3.53
2018-09-09T17:16:39.578Z,3.53
2018-09-09T17:20:42.471Z,3.80
2018-09-09T17:24:45.454Z,3.80
2018-09-09T17:28:48.319Z,7.17
2018-09-09T17:32:51.185Z,6.30
2018-09-09T17:36:54.068Z,2.93
2018-09-09T17:40:56.920Z,3.20
2018-09-09T17:44:59.823Z,3.43
2018-09-09T17:49:03.145Z,4.00
2018-09-09T17:53:06.062Z,5.03
2018-09-09T17:57:08.927Z,3.53
2018-09-09T18:01:11.975Z,3.67
2018-09-09T18:05:14.842Z,3.03
2018-09-09T18:09:17.868Z,3.30
2018-09-09T18:13:20.739Z,5.27
2018-09-09T18:17:23.652Z,2.50
2018-09-09T18:21:26.715Z,3.03
2018-09-09T18:25:29.635Z,4.10
2018-09-09T18:29:32.517Z,3.10
2018-09-09T18:33:35.596Z,5.17
2018-09-09T18:37:38.500Z,4.20
2018-09-09T18:41:41.502Z,3.50
2018-09-09T18:45:44.391Z,5.17
2018-09-09T18:49:47.644Z,6.13
2018-09-09T18:53:50.520Z,4.13
2018-09-09T18:57:53.492Z,8.43
2018-09-09T19:01:56.665Z,4.03
2018-09-09T19:06:00.650Z,7.27
2018-09-09T19:10:03.515Z,4.90
2018-09-09T19:14:06.482Z,4.57
2018-09-09T19:18:09.525Z,4.57
2018-09-09T19:22:12.425Z,4.40
2018-09-09T19:26:15.897Z,5.10
2018-09-09T19:30:18.763Z,4.70
2018-09-09T19:34:22.432Z,5.97
2018-09-09T19:38:25.301Z,5.70
2018-09-09T19:42:28.407Z,5.90
2018-09-09T19:46:31.298Z,5.10
2018-09-09T19:50:34.343Z,4.90
2018-09-09T19:54:37.437Z,5.10
2018-09-09T19:58:40.324Z,6.23
2018-09-09T20:02:43.181Z,6.67
2018-09-09T20:06:46.203Z,6.13
2018-09-09T20:10:49.273Z,5.70
2018-09-09T20:14:52.296Z,4.87
2018-09-09T20:18:55.163Z,8.27
2018-09-09T20:22:58.540Z,6.70
2018-09-09T20:27:01.361Z,5.73
2018-09-09T20:31:04.651Z,13.80
2018-09-09T20:35:07.507Z,5.60
2018-09-09T20:39:11.503Z,5.13
2018-09-09T20:43:14.503Z,5.70
2018-09-09T20:47:17.663Z,7.33
2018-09-09T20:51:20.535Z,6.03
2018-09-09T20:55:23.452Z,12.33
2018-09-09T20:59:26.334Z,6.23
2018-09-09T21:03:29.259Z,5.90
2018-09-09T21:07:32.336Z,8.63
2018-09-09T21:11:35.255Z,5.53
2018-09-09T21:15:38.344Z,5.97
2018-09-09T21:19:41.492Z,7.10
2018-09-09T21:23:44.469Z,5.40
2018-09-09T21:27:47.612Z,5.20
2018-09-09T21:31:50.462Z,5.77
2018-09-09T21:35:53.427Z,4.87
2018-09-09T21:39:56.313Z,5.70
2018-09-09T21:43:59.496Z,6.27
2018-09-09T21:48:02.349Z,9.20
2018-09-09T21:52:05.248Z,6.20
2018-09-09T21:56:08.320Z,6.10
2018-09-09T22:00:12.369Z,6.10
2018-09-09T22:04:15.443Z,5.40
2018-09-09T22:08:18.368Z,5.90
2018-09-09T22:12:21.579Z,7.00
2018-09-09T22:16:24.681Z,7.60
2018-09-09T22:20:27.545Z,6.00
2018-09-09T22:24:30.579Z,6.60
2018-09-09T22:28:33.663Z,6.07
2018-09-09T22:32:36.587Z,6.00
2018-09-09T22:36:39.660Z,7.10
2018-09-09T22:40:42.767Z,6.77
2018-09-09T22:44:45.634Z,7.03
2018-09-09T22:48:48.755Z,7.80
2018-09-09T22:52:51.623Z,7.40
2018-09-09T22:56:54.558Z,7.80
2018-09-09T23:00:57.449Z,7.20
2018-09-09T23:05:00.451Z,6.40
2018-09-09T23:09:05.031Z,6.90
2018-09-09T23:13:08.247Z,7.80
2018-09-09T23:17:11.132Z,9.83
2018-09-09T23:21:14.288Z,8.07
2018-09-09T23:25:17.321Z,7.53
2018-09-09T23:29:20.447Z,7.47
2018-09-09T23:33:23.294Z,7.70
2018-09-09T23:37:26.213Z,8.43
2018-09-09T23:41:29.067Z,9.37
2018-09-09T23:45:31.970Z,10.07
2018-09-09T23:49:35.089Z,9.77
2018-09-09T23:53:37.987Z,8.10
2018-09-09T23:57:40.840Z,8.73
